KFHU

Sierra Vista

Airport
ICAO code
KFHU
Summary
ICAO Region
NAM
ICAO Territory
Location

Fort Huachuca, Sierra Vista, Cochise County, Arizona,

Elevation
4719 ft
Coordinates
31° 35' 14" N , 110° 20' 52" W
KCC
BSk
Airport RE
Hot and High Operations
Metar
Observation
KFHU 092358Z 29009KT 10SM BKN130 26/17 A3015 RMK AO2A SLPNO 60002 T02580166 10287 20197 57012
Station
Fort Huachuca, Libby AAF Ft Huachuca
Date/Time
2022-08-09 23:58:00
Wind direction
290°
Wind speed
09 kts
Lowest cloud amount
broken clouds
Temperature
25.8°C
Dew point
16.6°C
Humidity
56%
Weather condition
n/a

Description

Sierra Vista Municipal Airport, a joint-use airport which shares facilities with Libby Army Airfield, is located on Fort Huachuca in Sierra Vista, a city in Cochise County, Arizona, United States. The airport has three runways and one helipad. It is mostly used for military aviation for the surrounding military base.

Climatology

Cold Semi-arid climate (Köppen climate classification BSk). - Hot, sometimes extremely hot summers and cold, sometimes very cold winters. Some snowfall during the winter. Areas featuring cold semi-arid climates are sometimes subject to major temperature swings during a 24 hour period.

Airport map

Aerial View

SKYbrary Partners:

Safety knowledge contributed by: